Time;durP1;ratioP1;P1;durP2;ratioP2;P2;SDS_P1;SDS_P2;PMS_P1;PMS_P2;Temp;Humidity;BMP_temperature;BMP_pressure;BME280_temperature;BME280_humidity;BME280_pressure;Samples;Min_cycle;Max_cycle;Signal;HPM_P1;HPM_P2
2021/05/10 00:00:51;;;;;;;2.22;0.95;;;18.10;67.60;;;;;;6153369;23;20006;-89
2021/05/10 00:03:17;;;;;;;2.22;1.02;;;18.10;67.50;;;;;;6128627;23;20295;-89
2021/05/10 00:05:43;;;;;;;1.42;1.00;;;18.10;67.40;;;;;;6128584;23;20006;-89
2021/05/10 00:08:09;;;;;;;1.48;0.85;;;18.00;67.70;;;;;;6128607;23;20021;-89
2021/05/10 00:10:36;;;;;;;1.10;0.80;;;18.00;67.70;;;;;;6129233;23;20016;-88
2021/05/10 00:13:03;;;;;;;1.98;0.80;;;18.00;68.00;;;;;;6128494;23;20002;-88
2021/05/10 00:15:29;;;;;;;1.40;1.00;;;18.00;68.00;;;;;;6129657;23;19998;-89
2021/05/10 00:18:02;;;;;;;2.83;1.25;;;17.90;68.30;;;;;;6129373;23;20084;-88
2021/05/10 00:20:30;;;;;;;5.35;1.17;;;17.90;68.40;;;;;;6130078;23;20235;-88
2021/05/10 00:22:55;;;;;;;2.33;1.35;;;17.80;68.70;;;;;;6129393;23;20021;-89
2021/05/10 00:25:21;;;;;;;1.52;1.17;;;17.80;69.20;;;;;;6128611;23;20005;-89
2021/05/10 00:27:46;;;;;;;2.80;1.00;;;17.70;68.80;;;;;;6128801;23;20010;-89
2021/05/10 00:30:12;;;;;;;2.75;1.30;;;17.70;68.80;;;;;;6128416;23;20026;-88
2021/05/10 00:32:38;;;;;;;2.70;0.88;;;17.70;69.40;;;;;;6128289;23;20002;-89
2021/05/10 00:35:04;;;;;;;1.65;1.05;;;17.60;69.50;;;;;;6128948;23;20069;-90
2021/05/10 00:37:29;;;;;;;1.73;0.90;;;17.60;69.70;;;;;;6128583;23;20316;-89
2021/05/10 00:39:55;;;;;;;2.05;1.10;;;17.50;69.70;;;;;;6152921;23;20005;-89
2021/05/10 00:42:21;;;;;;;1.10;0.90;;;17.50;70.20;;;;;;6152819;23;20141;-89
2021/05/10 00:44:46;;;;;;;3.22;1.10;;;17.40;70.10;;;;;;6129881;23;20009;-88
2021/05/10 00:47:11;;;;;;;2.75;1.00;;;17.40;70.60;;;;;;6128898;23;20010;-90
2021/05/10 00:49:37;;;;;;;3.08;1.25;;;17.30;70.90;;;;;;6129637;23;20040;-88
2021/05/10 00:52:03;;;;;;;4.60;1.40;;;17.30;70.90;;;;;;6128551;23;20049;-89
2021/05/10 00:54:29;;;;;;;1.13;0.90;;;17.20;71.70;;;;;;6127745;23;20005;-88
2021/05/10 00:56:54;;;;;;;3.05;1.23;;;17.20;71.30;;;;;;6129550;23;20031;-90
2021/05/10 00:59:20;;;;;;;2.78;1.30;;;17.20;71.30;;;;;;6127985;23;20006;-89
2021/05/10 01:01:46;;;;;;;2.03;1.40;;;17.10;71.50;;;;;;6129444;23;20006;-89
2021/05/10 01:04:11;;;;;;;1.30;1.00;;;17.10;71.50;;;;;;6129441;23;20017;-88
2021/05/10 01:06:37;;;;;;;2.13;1.13;;;17.10;71.40;;;;;;6128499;23;20061;-87
2021/05/10 01:09:04;;;;;;;5.28;0.93;;;17.10;71.10;;;;;;6129098;23;20025;-88
2021/05/10 01:11:29;;;;;;;1.42;0.90;;;17.10;71.40;;;;;;6129045;23;20076;-88
2021/05/10 01:13:55;;;;;;;3.35;0.85;;;17.10;71.70;;;;;;6152267;23;20068;-89
2021/05/10 01:16:20;;;;;;;5.13;0.90;;;17.00;71.60;;;;;;6153502;23;20299;-89
2021/05/10 01:18:46;;;;;;;5.55;1.10;;;17.00;71.90;;;;;;6127096;23;20029;-88
2021/05/10 01:21:13;;;;;;;1.60;1.00;;;17.00;72.30;;;;;;6129481;23;20326;-89
2021/05/10 01:23:38;;;;;;;2.08;1.17;;;16.90;72.20;;;;;;6129130;23;20021;-88
2021/05/10 01:26:04;;;;;;;1.88;1.10;;;16.90;72.80;;;;;;6128190;23;20009;-89
2021/05/10 01:28:30;;;;;;;2.20;0.82;;;16.90;72.60;;;;;;6129583;23;20017;-88
2021/05/10 01:30:55;;;;;;;1.83;1.02;;;16.80;73.10;;;;;;6128061;23;20044;-89
2021/05/10 01:33:22;;;;;;;4.70;1.85;;;16.80;73.00;;;;;;6128973;23;20044;-89
2021/05/10 01:35:50;;;;;;;1.67;1.00;;;16.80;73.00;;;;;;6128510;23;20358;-88
2021/05/10 01:38:16;;;;;;;1.65;1.00;;;16.80;73.10;;;;;;6129320;23;20002;-89
2021/05/10 01:40:42;;;;;;;1.88;1.00;;;16.70;73.20;;;;;;6128408;23;20061;-88
2021/05/10 01:43:08;;;;;;;2.13;1.05;;;16.70;73.30;;;;;;6152706;23;20009;-88
2021/05/10 01:45:34;;;;;;;1.20;0.88;;;16.70;73.50;;;;;;6129146;23;20047;-87
2021/05/10 01:48:02;;;;;;;4.25;1.10;;;16.60;73.70;;;;;;6127749;23;20013;-88
2021/05/10 01:50:28;;;;;;;1.70;1.08;;;16.60;73.60;;;;;;6128253;23;20009;-88
2021/05/10 01:52:54;;;;;;;2.00;1.00;;;16.60;73.50;;;;;;6128094;23;20481;-88
2021/05/10 01:55:23;;;;;;;1.67;1.10;;;16.60;73.80;;;;;;6127516;23;20068;-89
2021/05/10 01:57:50;;;;;;;1.65;1.00;;;16.50;73.70;;;;;;6128313;23;20009;-89
2021/05/10 02:00:19;;;;;;;2.38;1.60;;;16.50;73.80;;;;;;6153004;23;20089;-90
2021/05/10 02:02:45;;;;;;;1.40;1.00;;;16.50;73.90;;;;;;6127803;23;20014;-88
2021/05/10 02:05:16;;;;;;;1.65;1.13;;;16.50;73.60;;;;;;6129020;23;20408;-89
2021/05/10 02:07:53;;;;;;;1.73;1.00;;;16.50;73.70;;;;;;6127935;23;20006;-88
2021/05/10 02:10:22;;;;;;;1.13;1.02;;;16.50;74.10;;;;;;6128321;23;20243;-89
2021/05/10 02:12:56;;;;;;;1.77;1.33;;;16.50;73.90;;;;;;6127915;23;20002;-89
2021/05/10 02:15:27;;;;;;;1.27;1.00;;;16.40;74.00;;;;;;6127815;23;20245;-89
2021/05/10 02:17:53;;;;;;;1.23;1.10;;;16.40;74.00;;;;;;6129138;23;20005;-89
2021/05/10 02:20:20;;;;;;;3.33;0.90;;;16.40;74.40;;;;;;6152626;23;20016;-90
2021/05/10 02:22:51;;;;;;;2.67;1.00;;;16.40;74.50;;;;;;6131106;23;20080;-89
2021/05/10 02:25:18;;;;;;;2.15;0.98;;;16.30;74.20;;;;;;6130742;23;20081;-90
2021/05/10 02:27:44;;;;;;;1.30;0.90;;;16.30;74.20;;;;;;6154021;23;20069;-90
2021/05/10 02:30:10;;;;;;;1.20;0.70;;;16.30;74.40;;;;;;6154863;23;20092;-89
2021/05/10 02:32:35;;;;;;;1.05;0.80;;;16.30;74.30;;;;;;6129517;23;20068;-89
2021/05/10 02:35:01;;;;;;;1.77;1.10;;;16.20;74.90;;;;;;6130889;23;20037;-89
2021/05/10 02:37:26;;;;;;;1.48;1.00;;;16.20;74.70;;;;;;6131233;23;20006;-90
2021/05/10 02:39:52;;;;;;;3.25;1.10;;;16.20;75.10;;;;;;6129684;23;20021;-89
2021/05/10 02:42:17;;;;;;;2.20;1.10;;;16.00;76.20;;;;;;6130117;23;20370;-90
2021/05/10 02:44:42;;;;;;;2.03;1.23;;;16.00;76.00;;;;;;6129859;23;20005;-88
2021/05/10 02:47:08;;;;;;;1.88;1.27;;;16.00;76.20;;;;;;6129757;23;20005;-89
2021/05/10 02:49:33;;;;;;;3.70;1.20;;;15.90;76.50;;;;;;6130210;23;20010;-90
2021/05/10 02:51:59;;;;;;;1.35;1.08;;;15.80;77.50;;;;;;6154274;23;20337;-89
2021/05/10 02:54:24;;;;;;;1.75;1.08;;;15.80;77.00;;;;;;6129648;23;20282;-88
2021/05/10 02:56:50;;;;;;;1.75;1.20;;;15.80;76.60;;;;;;6129795;23;20081;-89
2021/05/10 02:59:15;;;;;;;2.10;1.40;;;15.80;76.90;;;;;;6129613;23;20013;-89
2021/05/10 03:01:41;;;;;;;1.83;1.40;;;15.80;77.00;;;;;;6129261;23;20017;-88
2021/05/10 03:04:06;;;;;;;3.00;1.38;;;15.80;77.10;;;;;;6129528;23;20239;-88
2021/05/10 03:06:32;;;;;;;4.05;1.50;;;15.70;77.20;;;;;;6130379;23;20013;-89
2021/05/10 03:08:57;;;;;;;2.08;1.20;;;15.70;77.70;;;;;;6129454;23;20219;-89
2021/05/10 03:11:23;;;;;;;3.33;2.20;;;15.60;79.10;;;;;;6129871;23;20005;-89
2021/05/10 03:13:48;;;;;;;3.35;1.50;;;15.50;78.60;;;;;;6129533;23;20001;-89
2021/05/10 03:16:14;;;;;;;6.97;1.63;;;15.50;78.80;;;;;;6129161;23;20310;-89
2021/05/10 03:18:39;;;;;;;1.98;1.58;;;15.50;79.00;;;;;;6129350;23;20005;-90
2021/05/10 03:21:05;;;;;;;7.85;1.38;;;15.50;79.30;;;;;;6129979;23;20002;-89
2021/05/10 03:23:30;;;;;;;2.20;1.50;;;15.50;79.70;;;;;;6129601;23;20060;-87
2021/05/10 03:25:56;;;;;;;2.72;1.92;;;15.40;79.50;;;;;;6129418;23;20072;-90
2021/05/10 03:28:21;;;;;;;3.03;1.63;;;15.40;79.70;;;;;;6129584;23;20258;-91
2021/05/10 03:30:47;;;;;;;3.35;1.67;;;15.30;80.10;;;;;;6128782;23;20006;-90
2021/05/10 03:33:13;;;;;;;2.63;1.65;;;15.30;80.10;;;;;;6129555;23;20005;-90
2021/05/10 03:35:39;;;;;;;3.83;2.08;;;15.30;80.40;;;;;;6128613;23;20354;-90
2021/05/10 03:38:04;;;;;;;2.42;1.42;;;15.20;80.30;;;;;;6129130;23;20072;-88
2021/05/10 03:40:30;;;;;;;3.53;1.50;;;15.20;80.30;;;;;;6129307;23;20010;-88
2021/05/10 03:42:55;;;;;;;3.90;1.63;;;15.20;80.60;;;;;;6153767;23;19998;-87
2021/05/10 03:45:21;;;;;;;2.80;1.70;;;15.20;80.90;;;;;;6129483;23;20006;-88
2021/05/10 03:47:46;;;;;;;2.70;1.65;;;15.20;81.10;;;;;;6128966;23;20006;-88
2021/05/10 03:50:20;;;;;;;2.58;1.60;;;15.20;81.10;;;;;;6128679;23;20041;-89
2021/05/10 03:52:47;;;;;;;2.63;2.10;;;15.10;81.20;;;;;;6130067;23;20033;-90
2021/05/10 03:55:15;;;;;;;4.25;1.30;;;15.10;81.70;;;;;;6129743;23;20034;-89
2021/05/10 03:57:41;;;;;;;3.47;2.13;;;15.10;81.80;;;;;;6128822;23;20271;-89
2021/05/10 04:00:09;;;;;;;2.42;1.63;;;15.10;81.80;;;;;;6129463;23;20017;-89
2021/05/10 04:02:35;;;;;;;3.47;1.60;;;15.00;82.00;;;;;;6129870;23;20558;-90
2021/05/10 04:07:45;;;;;;;3.10;1.30;;;15.00;82.30;;;;;;6139673;23;20017;-89
2021/05/10 04:15:39;;;;;;;8.05;1.92;;;15.10;81.20;;;;;;6129908;23;20309;-87
2021/05/10 04:18:04;;;;;;;4.32;1.52;;;15.20;80.90;;;;;;6152822;23;20009;-88
2021/05/10 04:20:30;;;;;;;1.52;1.08;;;15.20;80.90;;;;;;6129210;23;20005;-88
2021/05/10 04:22:56;;;;;;;1.50;0.90;;;15.30;80.80;;;;;;6128333;23;20006;-88
2021/05/10 04:25:21;;;;;;;1.80;1.00;;;15.40;80.40;;;;;;6129040;23;20006;-88
2021/05/10 04:27:48;;;;;;;4.10;1.30;;;15.50;80.50;;;;;;6146770;23;20105;-88
2021/05/10 04:30:14;;;;;;;2.17;1.40;;;15.60;79.50;;;;;;6151074;23;20013;-89
2021/05/10 04:32:40;;;;;;;2.67;1.30;;;15.70;79.10;;;;;;6125808;23;20006;-87
2021/05/10 04:35:07;;;;;;;2.97;1.27;;;15.80;79.30;;;;;;6127462;23;20006;-90
2021/05/10 04:37:33;;;;;;;4.55;1.52;;;15.80;79.10;;;;;;6151859;23;20089;-90
2021/05/10 04:39:58;;;;;;;3.65;1.25;;;16.00;78.40;;;;;;6126275;23;20002;-88
2021/05/10 04:42:24;;;;;;;2.95;1.25;;;16.00;78.50;;;;;;6127362;23;20092;-89
2021/05/10 04:44:50;;;;;;;2.45;1.25;;;16.10;77.90;;;;;;6127635;23;20017;-90
2021/05/10 04:47:15;;;;;;;2.35;1.20;;;16.20;77.70;;;;;;6126496;23;20075;-89
2021/05/10 04:49:41;;;;;;;1.60;1.05;;;16.30;77.80;;;;;;6127694;23;20357;-89
2021/05/10 04:52:06;;;;;;;4.35;1.52;;;16.30;77.00;;;;;;6127808;23;20006;-88
2021/05/10 04:54:32;;;;;;;4.60;1.30;;;16.40;77.40;;;;;;6126460;23;20084;-87
2021/05/10 04:56:58;;;;;;;2.67;1.30;;;16.40;77.20;;;;;;6126835;23;20013;-89
2021/05/10 04:59:23;;;;;;;2.28;1.60;;;16.50;77.20;;;;;;6127235;23;20002;-89
2021/05/10 05:01:49;;;;;;;3.58;1.17;;;16.50;76.80;;;;;;6126320;23;20646;-89
2021/05/10 05:04:16;;;;;;;5.97;1.00;;;16.60;77.20;;;;;;6127939;23;20058;-88
2021/05/10 05:06:42;;;;;;;3.40;1.38;;;16.60;76.90;;;;;;6149888;23;20149;-87
2021/05/10 05:09:07;;;;;;;4.40;1.60;;;16.60;76.60;;;;;;6124998;23;20006;-89
2021/05/10 05:11:34;;;;;;;3.72;1.30;;;16.70;76.10;;;;;;6126068;23;20028;-88
2021/05/10 05:13:59;;;;;;;1.58;1.10;;;16.80;76.50;;;;;;6148632;23;20037;-88
2021/05/10 05:16:25;;;;;;;2.03;1.00;;;16.80;76.30;;;;;;6125944;23;20002;-89
2021/05/10 05:18:50;;;;;;;2.35;1.60;;;16.80;76.40;;;;;;6149591;23;20012;-88
2021/05/10 05:21:16;;;;;;;2.13;1.20;;;16.80;76.10;;;;;;6124992;23;20036;-89
2021/05/10 05:23:41;;;;;;;2.92;1.20;;;16.90;76.10;;;;;;6126603;23;20010;-88
2021/05/10 05:26:07;;;;;;;4.82;1.48;;;17.00;75.90;;;;;;6125152;23;20014;-87
2021/05/10 05:28:33;;;;;;;3.50;1.13;;;17.10;75.70;;;;;;6125394;23;20279;-87
2021/05/10 05:31:01;;;;;;;2.42;1.00;;;17.20;75.70;;;;;;6126064;23;20077;-87
2021/05/10 05:33:27;;;;;;;2.60;1.10;;;17.20;75.30;;;;;;6125488;23;20082;-88
2021/05/10 05:35:53;;;;;;;1.67;0.93;;;17.30;75.20;;;;;;6126598;23;20267;-88
2021/05/10 05:38:20;;;;;;;1.60;1.10;;;17.30;75.20;;;;;;6125918;23;20005;-88
2021/05/10 05:40:46;;;;;;;5.50;1.30;;;17.50;74.80;;;;;;6126117;23;20006;-88
2021/05/10 05:43:12;;;;;;;1.92;1.20;;;17.50;74.30;;;;;;6126242;23;20331;-88
2021/05/10 05:45:39;;;;;;;1.45;1.10;;;17.60;74.30;;;;;;6126515;23;20342;-88
2021/05/10 05:48:07;;;;;;;1.90;1.13;;;17.70;74.60;;;;;;6124940;23;20373;-87
2021/05/10 05:50:34;;;;;;;2.00;1.20;;;17.80;74.00;;;;;;6125875;23;20012;-87
2021/05/10 05:53:01;;;;;;;2.03;0.90;;;17.90;73.50;;;;;;6125472;23;20056;-89
2021/05/10 05:55:27;;;;;;;3.95;1.05;;;18.00;73.80;;;;;;6129362;23;20013;-88
2021/05/10 05:57:53;;;;;;;1.70;1.02;;;18.10;73.40;;;;;;6128972;23;20231;-88
2021/05/10 06:00:19;;;;;;;2.33;1.10;;;18.20;73.40;;;;;;6126920;23;20005;-87
2021/05/10 06:02:45;;;;;;;1.75;1.05;;;18.30;72.60;;;;;;6126530;23;20029;-88
2021/05/10 06:05:12;;;;;;;2.63;1.20;;;18.30;72.70;;;;;;6128054;23;20139;-89
2021/05/10 06:07:46;;;;;;;3.10;1.00;;;18.40;72.50;;;;;;6126642;23;20020;-88
2021/05/10 06:10:14;;;;;;;7.25;1.10;;;18.50;71.90;;;;;;6126654;23;20020;-87
2021/05/10 06:12:43;;;;;;;2.95;1.00;;;18.50;71.40;;;;;;6150999;23;20018;-87
2021/05/10 06:15:09;;;;;;;3.03;1.20;;;18.60;71.00;;;;;;6126956;23;20016;-87
2021/05/10 06:17:36;;;;;;;7.07;1.58;;;18.70;71.70;;;;;;6127406;23;20021;-88
2021/05/10 06:20:07;;;;;;;1.55;1.00;;;18.80;71.00;;;;;;6126868;23;20306;-89
2021/05/10 06:22:35;;;;;;;3.63;1.13;;;18.90;70.50;;;;;;6102007;23;20017;-88
2021/05/10 06:25:01;;;;;;;1.45;0.80;;;18.90;69.80;;;;;;6126696;23;20499;-90
2021/05/10 06:27:26;;;;;;;1.95;0.77;;;19.00;69.90;;;;;;6151091;23;20010;-89
2021/05/10 06:29:52;;;;;;;3.25;1.30;;;19.10;69.50;;;;;;6126986;23;20008;-88
2021/05/10 06:32:17;;;;;;;2.78;0.90;;;19.20;68.60;;;;;;6126323;23;20005;-89
2021/05/10 06:34:42;;;;;;;2.08;1.00;;;19.30;67.90;;;;;;6126970;23;20361;-88
2021/05/10 06:37:08;;;;;;;1.45;1.05;;;19.40;68.70;;;;;;6150685;23;20010;-89
2021/05/10 06:39:34;;;;;;;2.05;1.15;;;19.60;68.00;;;;;;6126186;23;20022;-89
2021/05/10 06:41:59;;;;;;;1.17;0.70;;;19.60;68.30;;;;;;6128100;23;20077;-88
2021/05/10 06:44:24;;;;;;;1.80;0.90;;;19.70;67.10;;;;;;6127671;23;20432;-88
2021/05/10 06:46:50;;;;;;;3.35;0.93;;;19.80;67.30;;;;;;6127412;23;20010;-88
2021/05/10 06:49:15;;;;;;;1.45;1.00;;;19.80;67.00;;;;;;6125772;23;20014;-88
2021/05/10 06:51:41;;;;;;;1.08;0.70;;;19.90;67.50;;;;;;6126728;23;20354;-89
2021/05/10 06:54:07;;;;;;;1.25;0.70;;;20.00;67.50;;;;;;6126130;23;20658;-89
2021/05/10 06:56:32;;;;;;;2.03;1.00;;;20.00;66.60;;;;;;6126314;23;20010;-87
2021/05/10 06:58:59;;;;;;;2.67;1.00;;;20.10;66.50;;;;;;6126990;23;20049;-88
2021/05/10 07:01:24;;;;;;;3.85;1.08;;;20.20;67.30;;;;;;6126222;23;20009;-87
2021/05/10 07:03:49;;;;;;;3.28;1.00;;;20.30;66.70;;;;;;6126863;23;20013;-87
2021/05/10 07:06:15;;;;;;;1.58;1.00;;;20.40;65.00;;;;;;6126587;23;20029;-88
2021/05/10 07:08:41;;;;;;;3.30;1.00;;;20.50;66.10;;;;;;6125310;23;20393;-87
2021/05/10 07:11:06;;;;;;;1.75;0.80;;;20.60;65.10;;;;;;6126944;23;20382;-88
2021/05/10 07:13:32;;;;;;;1.30;0.85;;;20.60;65.80;;;;;;6125492;23;20085;-89
2021/05/10 07:15:57;;;;;;;4.32;1.10;;;20.70;65.60;;;;;;6125887;23;20010;-88
2021/05/10 07:18:23;;;;;;;2.42;0.80;;;20.90;65.40;;;;;;6149862;23;20024;-88
2021/05/10 07:20:49;;;;;;;2.58;0.93;;;21.00;64.70;;;;;;6127166;23;20002;-88
2021/05/10 07:23:16;;;;;;;1.58;0.73;;;21.20;64.00;;;;;;6150109;23;20006;-88
2021/05/10 07:25:47;;;;;;;3.67;1.10;;;21.30;62.80;;;;;;6127266;23;20006;-86
2021/05/10 07:28:15;;;;;;;1.80;1.02;;;21.40;65.40;;;;;;6150089;23;20033;-88
2021/05/10 07:30:41;;;;;;;1.33;0.70;;;21.60;62.40;;;;;;6126409;23;20010;-88
2021/05/10 07:33:07;;;;;;;3.47;1.13;;;21.70;63.00;;;;;;6126162;23;20020;-87
2021/05/10 07:35:33;;;;;;;1.83;0.93;;;21.90;62.40;;;;;;6126093;23;20002;-88
2021/05/10 07:37:59;;;;;;;2.63;1.25;;;22.00;62.90;;;;;;6125613;23;20076;-86
2021/05/10 07:40:26;;;;;;;3.72;0.95;;;22.10;60.90;;;;;;6127037;23;20056;-87
2021/05/10 07:42:51;;;;;;;1.48;0.75;;;22.20;61.20;;;;;;6125950;23;20439;-86
2021/05/10 07:45:18;;;;;;;3.25;0.98;;;22.40;62.00;;;;;;6125536;23;20010;-87
2021/05/10 07:47:44;;;;;;;3.08;1.00;;;22.50;61.60;;;;;;6125009;23;20048;-86
2021/05/10 07:50:11;;;;;;;2.58;0.95;;;22.70;62.10;;;;;;6126571;23;20346;-86
2021/05/10 07:52:37;;;;;;;2.55;1.00;;;22.80;60.70;;;;;;6126333;23;20064;-87
2021/05/10 07:55:06;;;;;;;1.30;0.70;;;23.00;60.20;;;;;;6124893;23;20009;-87
2021/05/10 07:57:32;;;;;;;5.10;1.10;;;23.10;59.90;;;;;;6124894;23;20033;-87
2021/05/10 07:59:57;;;;;;;3.70;0.90;;;23.20;59.60;;;;;;6124706;23;20006;-86
2021/05/10 08:02:23;;;;;;;3.47;1.38;;;23.30;60.70;;;;;;6150367;23;20006;-87
2021/05/10 08:04:52;;;;;;;3.67;0.80;;;23.40;61.10;;;;;;6126479;23;20010;-87
2021/05/10 08:07:19;;;;;;;2.30;1.10;;;23.50;60.60;;;;;;6126488;23;20006;-87
2021/05/10 08:09:45;;;;;;;1.20;0.90;;;23.70;60.30;;;;;;6126492;23;20072;-87
2021/05/10 08:12:12;;;;;;;3.15;0.90;;;23.90;60.00;;;;;;6125179;23;20009;-85
2021/05/10 08:14:38;;;;;;;3.47;1.55;;;24.10;58.50;;;;;;6126721;23;20334;-86
2021/05/10 08:17:04;;;;;;;3.05;0.98;;;24.20;59.60;;;;;;6124625;23;20044;-86
2021/05/10 08:19:30;;;;;;;1.98;0.88;;;24.40;58.50;;;;;;6124930;23;20240;-87
2021/05/10 08:21:59;;;;;;;2.88;1.65;;;24.50;58.20;;;;;;6125965;23;20006;-87
2021/05/10 08:24:25;;;;;;;3.10;0.80;;;24.60;56.70;;;;;;6125970;23;20010;-86
2021/05/10 08:26:50;;;;;;;4.43;1.10;;;24.70;57.50;;;;;;6124946;23;20039;-87
2021/05/10 08:29:16;;;;;;;1.35;0.80;;;24.80;57.50;;;;;;6124484;23;20010;-88
2021/05/10 08:31:44;;;;;;;4.78;1.40;;;24.90;57.30;;;;;;6125559;23;20015;-87
2021/05/10 08:34:10;;;;;;;1.60;0.75;;;25.00;58.80;;;;;;6124180;23;20009;-87
2021/05/10 08:36:36;;;;;;;3.08;1.00;;;25.20;59.70;;;;;;6124311;23;20343;-88
2021/05/10 08:39:02;;;;;;;2.30;0.80;;;25.40;56.80;;;;;;6125221;23;20044;-87
2021/05/10 08:41:28;;;;;;;2.38;0.80;;;25.50;58.40;;;;;;6124184;23;20005;-88
2021/05/10 08:43:53;;;;;;;1.20;0.93;;;25.60;56.10;;;;;;6147725;23;20010;-87
2021/05/10 08:46:22;;;;;;;2.00;1.00;;;25.70;56.20;;;;;;6124728;23;20041;-86
2021/05/10 08:48:48;;;;;;;3.97;0.82;;;25.70;56.50;;;;;;6124366;23;20087;-85
2021/05/10 08:51:15;;;;;;;5.57;1.15;;;25.80;56.40;;;;;;6124156;23;20358;-86
2021/05/10 08:53:41;;;;;;;1.90;0.93;;;25.90;59.30;;;;;;6124184;23;20010;-87
2021/05/10 08:56:08;;;;;;;1.02;0.63;;;26.00;58.20;;;;;;6124493;23;20104;-86
2021/05/10 08:58:38;;;;;;;2.95;0.77;;;26.20;57.70;;;;;;6125532;23;20527;-86
2021/05/10 09:01:05;;;;;;;1.35;0.75;;;26.30;56.80;;;;;;6099467;23;20009;-86
2021/05/10 09:03:39;;;;;;;1.13;0.70;;;26.50;58.50;;;;;;6125395;23;20005;-87
2021/05/10 09:06:08;;;;;;;3.33;1.15;;;26.70;55.20;;;;;;6124951;23;20012;-86
2021/05/10 09:08:42;;;;;;;6.30;0.90;;;26.70;54.80;;;;;;6124491;23;20012;-87
2021/05/10 09:11:13;;;;;;;5.95;0.68;;;26.80;56.60;;;;;;6124648;23;20271;-87
2021/05/10 09:13:53;;;;;;;1.92;0.93;;;27.10;56.60;;;;;;6125319;23;20009;-85
2021/05/10 09:16:18;;;;;;;2.08;0.90;;;27.30;57.70;;;;;;6125707;23;20002;-86
2021/05/10 09:18:58;;;;;;;1.67;0.82;;;27.50;55.60;;;;;;6148396;23;20111;-86
2021/05/10 09:21:26;;;;;;;1.70;0.90;;;27.70;54.20;;;;;;6124403;23;20012;-87
2021/05/10 09:23:52;;;;;;;1.70;0.85;;;27.80;53.50;;;;;;6125159;23;20006;-87
2021/05/10 09:26:33;;;;;;;8.77;0.88;;;28.00;55.50;;;;;;6125242;23;20208;-86
2021/05/10 09:28:59;;;;;;;1.55;0.80;;;28.20;51.40;;;;;;6123557;23;20072;-86
2021/05/10 09:31:26;;;;;;;2.08;0.60;;;28.30;49.20;;;;;;6125291;23;20010;-86
2021/05/10 09:33:51;;;;;;;1.95;0.80;;;28.40;51.40;;;;;;6124363;23;20069;-86
2021/05/10 09:36:37;;;;;;;1.70;0.90;;;28.60;50.40;;;;;;6125354;23;20005;-86
2021/05/10 09:39:06;;;;;;;4.47;0.80;;;28.70;49.20;;;;;;6123647;23;20081;-86
2021/05/10 09:41:33;;;;;;;1.63;0.70;;;28.70;49.00;;;;;;6124372;23;20006;-87
2021/05/10 09:44:07;;;;;;;3.17;1.38;;;28.80;51.80;;;;;;6124754;23;20006;-86
2021/05/10 09:46:37;;;;;;;2.67;0.90;;;28.90;49.60;;;;;;6123866;23;20010;-87
2021/05/10 09:49:03;;;;;;;1.92;0.98;;;29.00;51.10;;;;;;6124615;23;19998;-86
2021/05/10 09:51:29;;;;;;;1.98;0.70;;;29.10;49.30;;;;;;6124685;23;20030;-85
2021/05/10 09:53:56;;;;;;;1.25;0.80;;;29.10;48.20;;;;;;6148440;23;20037;-85
2021/05/10 09:58:58;;;;;;;3.50;0.80;;;29.10;48.50;;;;;;6124708;23;20037;-85
2021/05/10 10:01:24;;;;;;;2.80;1.02;;;29.10;48.80;;;;;;6125584;23;20006;-85
2021/05/10 10:03:59;;;;;;;2.28;0.95;;;29.20;48.20;;;;;;6124972;23;20085;-85
2021/05/10 10:06:28;;;;;;;1.77;0.85;;;29.10;49.60;;;;;;6124205;23;20013;-85
2021/05/10 10:08:53;;;;;;;1.75;0.77;;;29.10;49.50;;;;;;6125116;23;20017;-84
2021/05/10 10:11:21;;;;;;;2.95;1.30;;;29.20;49.50;;;;;;6148605;23;20009;-86
2021/05/10 10:13:48;;;;;;;4.47;0.90;;;29.30;49.20;;;;;;6124711;23;20013;-85
2021/05/10 10:16:18;;;;;;;1.25;0.73;;;29.40;48.20;;;;;;6125309;23;20123;-86
2021/05/10 10:18:44;;;;;;;1.40;0.82;;;29.50;49.60;;;;;;6124887;23;20013;-86
2021/05/10 10:21:13;;;;;;;1.75;0.80;;;29.50;48.70;;;;;;6123914;23;20014;-86
2021/05/10 10:23:39;;;;;;;2.80;1.17;;;29.60;47.80;;;;;;6148792;23;20068;-85
2021/05/10 10:26:08;;;;;;;5.13;1.70;;;29.70;49.20;;;;;;6154134;23;20112;-85
2021/05/10 10:28:35;;;;;;;3.03;1.08;;;29.80;48.10;;;;;;6124198;23;20016;-85
2021/05/10 10:31:28;;;;;;;1.83;0.73;;;30.00;49.00;;;;;;6123604;23;20018;-84
2021/05/10 10:34:18;;;;;;;2.20;0.68;;;30.10;46.80;;;;;;6115055;23;20251;-84
2021/05/10 10:36:54;;;;;;;2.92;0.90;;;30.20;48.20;;;;;;6148308;23;20010;-85
2021/05/10 10:39:23;;;;;;;0.50;0.50;;;30.50;47.70;;;;;;6124154;23;20069;-84
2021/05/10 10:42:12;;;;;;;5.15;0.52;;;30.70;46.80;;;;;;6124419;23;20322;-84
2021/05/10 10:44:52;;;;;;;1.55;0.80;;;30.80;47.90;;;;;;6126345;23;20002;-85
2021/05/10 10:48:01;;;;;;;1.83;0.68;;;31.00;47.90;;;;;;6125560;23;20009;-85
2021/05/10 10:50:29;;;;;;;2.53;0.57;;;31.00;47.40;;;;;;6125298;23;20320;-84
2021/05/10 10:52:56;;;;;;;13.20;1.23;;;30.90;45.20;;;;;;6126575;23;20587;-84
2021/05/10 10:55:31;;;;;;;2.15;1.10;;;30.80;45.40;;;;;;6125763;23;20006;-85
2021/05/10 10:58:12;;;;;;;1.38;0.60;;;30.80;46.10;;;;;;6124264;23;20002;-85
2021/05/10 11:01:02;;;;;;;2.58;1.15;;;30.80;45.60;;;;;;6125804;23;19998;-85
2021/05/10 11:03:29;;;;;;;1.30;0.80;;;30.70;45.40;;;;;;6150007;23;20006;-85
2021/05/10 11:05:55;;;;;;;2.25;0.70;;;30.80;47.50;;;;;;6126062;23;20109;-85
2021/05/10 11:08:40;;;;;;;1.67;1.00;;;30.80;45.80;;;;;;6125922;23;20006;-85
2021/05/10 11:11:06;;;;;;;3.15;0.50;;;30.80;46.20;;;;;;6126456;23;20080;-84
2021/05/10 11:13:31;;;;;;;0.82;0.70;;;30.80;47.60;;;;;;6150355;23;20024;-84
2021/05/10 11:15:58;;;;;;;5.10;0.65;;;30.80;46.10;;;;;;6124976;23;20049;-85
2021/05/10 11:18:39;;;;;;;1.33;0.70;;;30.70;46.40;;;;;;6125629;23;20089;-85
2021/05/10 11:21:07;;;;;;;1.00;0.70;;;30.70;44.10;;;;;;6125807;23;20459;-84
2021/05/10 11:23:35;;;;;;;5.10;1.35;;;30.70;46.30;;;;;;6126064;23;20010;-84
2021/05/10 11:26:08;;;;;;;3.78;1.10;;;30.70;44.40;;;;;;6125363;23;20060;-84
2021/05/10 11:28:33;;;;;;;1.52;0.65;;;30.70;45.20;;;;;;6125960;23;20037;-84
2021/05/10 11:31:10;;;;;;;2.75;0.88;;;30.70;43.30;;;;;;6126029;23;20036;-85
2021/05/10 11:33:51;;;;;;;4.70;0.90;;;30.70;45.70;;;;;;6125189;23;20068;-84
2021/05/10 11:36:25;;;;;;;4.45;0.73;;;30.80;43.70;;;;;;6125018;23;20013;-84
2021/05/10 11:39:11;;;;;;;4.95;0.70;;;31.00;42.00;;;;;;6124802;23;20042;-84
2021/05/10 11:41:43;;;;;;;2.03;0.65;;;31.00;42.50;;;;;;6126106;23;20557;-84
2021/05/10 11:44:33;;;;;;;2.35;0.90;;;31.00;41.70;;;;;;6125763;23;20017;-84
2021/05/10 11:46:59;;;;;;;4.20;0.80;;;31.00;44.30;;;;;;6125699;23;20338;-84
2021/05/10 11:49:25;;;;;;;3.83;0.77;;;31.00;42.90;;;;;;6126180;23;19998;-84
2021/05/10 11:51:51;;;;;;;4.18;0.47;;;31.20;41.80;;;;;;6123874;23;20006;-86
2021/05/10 11:54:17;;;;;;;2.05;0.50;;;31.20;41.30;;;;;;6122758;23;20377;-85
2021/05/10 11:56:45;;;;;;;1.48;0.80;;;31.30;41.20;;;;;;6125054;23;20123;-84
2021/05/10 11:59:47;;;;;;;7.00;1.20;;;31.20;40.50;;;;;;6125576;23;20002;-84
2021/05/10 12:02:23;;;;;;;1.75;0.50;;;31.20;43.20;;;;;;6124737;23;20009;-84
2021/05/10 12:04:56;;;;;;;1.65;0.80;;;31.30;43.90;;;;;;6123575;23;20346;-84
2021/05/10 12:07:26;;;;;;;3.85;0.95;;;31.40;41.40;;;;;;6124073;23;20010;-84
2021/05/10 12:10:00;;;;;;;4.43;0.60;;;31.50;44.00;;;;;;6123614;23;20037;-84
2021/05/10 12:12:46;;;;;;;4.72;0.93;;;31.60;41.20;;;;;;6126232;23;20006;-84
2021/05/10 12:15:27;;;;;;;13.50;1.50;;;31.60;41.40;;;;;;6148771;23;20073;-84
2021/05/10 12:17:54;;;;;;;7.88;1.05;;;31.50;40.30;;;;;;6124041;23;20081;-84
2021/05/10 12:20:28;;;;;;;2.28;0.80;;;31.50;42.20;;;;;;6124968;23;20033;-84
2021/05/10 12:22:55;;;;;;;3.95;0.68;;;31.60;42.00;;;;;;6124505;23;20017;-84
2021/05/10 12:25:35;;;;;;;3.47;0.80;;;31.70;41.60;;;;;;6125360;23;20040;-85
2021/05/10 12:28:08;;;;;;;3.47;0.47;;;31.80;41.50;;;;;;6124934;23;20538;-84
2021/05/10 12:30:46;;;;;;;3.05;1.17;;;31.90;40.50;;;;;;6148542;23;20339;-85
2021/05/10 12:33:17;;;;;;;2.50;0.60;;;32.00;41.70;;;;;;6125056;23;20323;-84
2021/05/10 12:35:53;;;;;;;7.28;1.08;;;32.10;41.00;;;;;;6124592;23;20002;-84
2021/05/10 12:38:33;;;;;;;1.30;0.50;;;32.20;41.00;;;;;;6124947;23;20021;-85
2021/05/10 12:41:00;;;;;;;2.55;0.75;;;32.20;42.50;;;;;;6124279;23;20036;-85
2021/05/10 12:43:28;;;;;;;1.05;0.50;;;32.40;41.60;;;;;;6123104;23;20020;-85
2021/05/10 12:45:56;;;;;;;2.67;0.70;;;32.50;41.00;;;;;;6122619;23;20237;-85
2021/05/10 12:48:24;;;;;;;2.35;0.60;;;32.50;42.80;;;;;;6122343;23;20089;-84
2021/05/10 12:50:54;;;;;;;2.15;0.82;;;32.50;40.40;;;;;;6123864;23;20010;-84
2021/05/10 12:53:29;;;;;;;1.52;0.90;;;32.30;40.30;;;;;;6124459;23;20093;-84
2021/05/10 12:56:06;;;;;;;0.85;0.85;;;32.30;40.30;;;;;;6124045;23;20072;-84
2021/05/10 12:58:40;;;;;;;2.25;0.50;;;32.30;40.80;;;;;;6125434;23;20016;-84
2021/05/10 13:01:23;;;;;;;2.92;0.70;;;32.40;40.20;;;;;;6124679;23;20037;-84
2021/05/10 13:04:01;;;;;;;0.60;0.50;;;32.40;40.00;;;;;;6125283;23;20010;-84